createdAt,value
2023-03-28T00:00:45.509Z,1.52
2023-03-28T00:03:48.297Z,2.35
2023-03-28T00:06:52.268Z,1.67
2023-03-28T00:09:55.051Z,2.08
2023-03-28T00:12:57.646Z,1.67
2023-03-28T00:16:06.062Z,1.80
2023-03-28T00:19:11.961Z,2.28
2023-03-28T00:22:14.852Z,1.85
2023-03-28T00:25:19.812Z,1.65
2023-03-28T00:28:22.499Z,1.70
2023-03-28T00:31:28.504Z,2.22
2023-03-28T00:34:31.578Z,2.30
2023-03-28T00:37:34.441Z,2.03
2023-03-28T00:40:38.917Z,2.33
2023-03-28T00:43:52.604Z,1.98
2023-03-28T00:46:56.358Z,2.38
2023-03-28T00:50:05.805Z,1.20
2023-03-28T00:53:11.570Z,2.17
2023-03-28T00:56:17.866Z,2.38
2023-03-28T00:59:23.668Z,2.33
2023-03-28T01:02:26.664Z,2.17
2023-03-28T01:05:32.465Z,1.95
2023-03-28T01:08:38.857Z,2.03
2023-03-28T01:11:45.018Z,2.38
2023-03-28T01:14:49.676Z,2.15
2023-03-28T01:17:53.963Z,2.00
2023-03-28T01:21:34.117Z,2.30
2023-03-28T01:24:58.791Z,1.70
2023-03-28T01:28:25.224Z,2.55
2023-03-28T01:31:44.065Z,2.47
2023-03-28T01:35:37.970Z,1.67
2023-03-28T01:38:54.592Z,2.33
2023-03-28T01:42:19.270Z,1.92
2023-03-28T01:45:50.835Z,2.70
2023-03-28T01:49:12.381Z,2.92
2023-03-28T01:52:22.006Z,2.50
2023-03-28T01:55:42.066Z,2.13
2023-03-28T01:58:58.752Z,3.55
2023-03-28T02:02:34.983Z,2.80
2023-03-28T02:05:46.579Z,2.88
2023-03-28T02:08:53.291Z,3.07
2023-03-28T02:12:17.427Z,2.42
2023-03-28T02:15:33.287Z,2.72
2023-03-28T02:19:02.147Z,2.45
2023-03-28T02:22:59.756Z,2.75
2023-03-28T02:26:24.253Z,2.55
2023-03-28T02:30:08.060Z,2.60
2023-03-28T02:36:50.157Z,3.33
2023-03-28T02:39:58.322Z,2.55
2023-03-28T02:43:37.250Z,2.40
2023-03-28T02:47:03.488Z,2.35
2023-03-28T02:50:26.092Z,2.58
2023-03-28T02:54:03.064Z,3.28
2023-03-28T02:57:13.161Z,2.45
2023-03-28T03:00:21.906Z,3.00
2023-03-28T03:03:26.191Z,3.13
2023-03-28T03:06:29.204Z,2.80
2023-03-28T03:09:32.727Z,3.10
2023-03-28T03:12:36.712Z,2.50
2023-03-28T03:15:41.626Z,2.30
2023-03-28T03:19:13.754Z,3.08
2023-03-28T03:22:20.572Z,2.08
2023-03-28T03:25:27.273Z,2.47
2023-03-28T03:28:42.367Z,4.30
2023-03-28T03:31:45.411Z,2.20
2023-03-28T03:35:08.308Z,2.00
2023-03-28T03:38:11.034Z,1.98
2023-03-28T03:41:14.394Z,2.22
2023-03-28T03:44:17.181Z,2.22
2023-03-28T03:47:20.328Z,2.25
2023-03-28T03:50:25.536Z,2.10
2023-03-28T03:53:28.356Z,1.98
2023-03-28T03:56:38.848Z,2.25
2023-03-28T03:59:41.907Z,2.45
2023-03-28T04:02:49.364Z,2.05
2023-03-28T04:05:59.572Z,2.70
2023-03-28T04:09:02.483Z,2.10
2023-03-28T04:12:25.029Z,1.73
2023-03-28T04:15:31.027Z,1.88
2023-03-28T04:18:40.562Z,2.13
2023-03-28T04:21:44.154Z,2.08
2023-03-28T04:24:50.086Z,1.98
2023-03-28T04:28:05.678Z,2.25
2023-03-28T04:31:16.346Z,2.13
2023-03-28T04:34:39.056Z,1.63
2023-03-28T04:40:47.479Z,1.85
2023-03-28T04:44:12.792Z,2.63
2023-03-28T04:47:21.718Z,2.33
2023-03-28T04:50:24.494Z,2.00
2023-03-28T04:53:27.396Z,2.70
2023-03-28T04:56:48.606Z,2.50
2023-03-28T04:59:57.119Z,2.08
2023-03-28T05:03:22.941Z,2.15
2023-03-28T05:06:37.548Z,2.85
2023-03-28T05:09:40.847Z,2.10
2023-03-28T05:12:44.210Z,2.55
2023-03-28T05:15:47.842Z,1.85
2023-03-28T05:19:21.212Z,2.05
2023-03-28T05:22:33.830Z,2.47
2023-03-28T05:28:44.348Z,2.65
2023-03-28T05:31:47.365Z,2.45
2023-03-28T05:34:58.699Z,2.67
2023-03-28T05:38:05.472Z,2.03
2023-03-28T05:41:08.434Z,1.52
2023-03-28T05:44:11.339Z,1.77
2023-03-28T05:47:40.601Z,2.00
2023-03-28T05:50:45.335Z,1.10
2023-03-28T05:53:48.260Z,1.58
2023-03-28T05:56:51.050Z,2.40
2023-03-28T05:59:54.272Z,0.95
2023-03-28T06:02:58.285Z,1.27
2023-03-28T06:06:08.924Z,1.40
2023-03-28T06:09:12.589Z,1.75
2023-03-28T06:12:25.927Z,1.55
2023-03-28T06:15:29.145Z,1.42
2023-03-28T06:18:31.997Z,1.95
2023-03-28T06:21:35.558Z,1.90
2023-03-28T06:24:41.779Z,1.50
2023-03-28T06:27:44.438Z,1.33
2023-03-28T06:30:50.941Z,1.30
2023-03-28T06:33:54.224Z,1.35
2023-03-28T06:37:02.124Z,1.30
2023-03-28T06:40:20.955Z,1.48
2023-03-28T06:43:23.903Z,0.93
2023-03-28T06:46:42.513Z,1.30
2023-03-28T06:49:51.505Z,0.90
2023-03-28T06:53:12.903Z,1.30
2023-03-28T06:56:18.490Z,1.45
2023-03-28T06:59:21.822Z,1.20
2023-03-28T07:02:30.232Z,1.00
2023-03-28T07:05:41.364Z,1.40
2023-03-28T07:08:49.541Z,1.05
2023-03-28T07:12:02.417Z,2.78
2023-03-28T07:15:06.421Z,4.88
2023-03-28T07:18:13.215Z,1.63
2023-03-28T07:21:21.703Z,2.42
2023-03-28T07:24:24.535Z,2.60
2023-03-28T07:27:38.918Z,2.35
2023-03-28T07:30:42.305Z,2.40
2023-03-28T07:33:44.941Z,1.80
2023-03-28T07:36:48.115Z,1.38
2023-03-28T07:39:58.682Z,1.35
2023-03-28T07:43:02.802Z,0.70
2023-03-28T07:46:08.440Z,1.00
2023-03-28T07:49:11.965Z,0.80
2023-03-28T07:52:15.467Z,0.55
2023-03-28T07:55:21.885Z,0.70
2023-03-28T07:58:26.917Z,0.70
2023-03-28T08:01:33.785Z,0.50
2023-03-28T08:04:42.000Z,0.80
2023-03-28T08:07:52.299Z,1.05
2023-03-28T08:10:55.144Z,0.60
2023-03-28T08:14:01.494Z,0.70
2023-03-28T08:17:06.079Z,0.60
2023-03-28T08:20:13.217Z,0.80
2023-03-28T08:23:31.480Z,1.02
2023-03-28T08:26:44.052Z,1.38
2023-03-28T08:29:48.098Z,0.50
2023-03-28T08:32:52.039Z,0.60
2023-03-28T08:35:55.061Z,0.50
2023-03-28T08:39:01.253Z,0.67
2023-03-28T08:42:19.808Z,0.40
2023-03-28T08:45:38.417Z,0.70
2023-03-28T08:48:44.924Z,0.70
2023-03-28T08:51:51.867Z,0.80
2023-03-28T08:55:06.671Z,1.60
2023-03-28T08:58:23.806Z,0.80
2023-03-28T09:01:29.691Z,0.50
2023-03-28T09:04:35.567Z,0.57
2023-03-28T09:07:55.621Z,0.40
2023-03-28T09:11:24.812Z,0.40
2023-03-28T09:15:01.731Z,0.30
2023-03-28T09:18:34.618Z,0.70
2023-03-28T09:22:14.837Z,0.30
2023-03-28T09:25:40.216Z,0.50
2023-03-28T09:28:46.486Z,0.50
2023-03-28T09:31:51.996Z,0.40
2023-03-28T09:34:56.724Z,0.67
2023-03-28T09:38:04.988Z,0.95
2023-03-28T09:41:15.222Z,0.40
2023-03-28T09:45:16.755Z,0.40
2023-03-28T09:48:28.263Z,0.77
2023-03-28T09:51:31.803Z,0.40
2023-03-28T09:54:37.814Z,0.40
2023-03-28T09:58:11.571Z,0.68
2023-03-28T10:01:34.487Z,0.40
2023-03-28T10:05:05.521Z,0.40
2023-03-28T10:08:23.007Z,0.50
2023-03-28T10:11:58.072Z,0.50
2023-03-28T10:15:05.075Z,0.40
2023-03-28T10:18:45.691Z,0.80
2023-03-28T10:22:17.463Z,0.40
2023-03-28T10:25:37.835Z,0.38
2023-03-28T10:28:43.635Z,0.38
2023-03-28T10:31:50.021Z,0.40
2023-03-28T10:35:26.880Z,1.20
2023-03-28T10:38:49.977Z,0.60
2023-03-28T10:42:00.471Z,0.40
2023-03-28T10:45:20.475Z,0.40
2023-03-28T10:48:28.116Z,0.95
2023-03-28T10:51:38.314Z,1.30
2023-03-28T10:55:10.225Z,0.50
2023-03-28T10:58:35.681Z,0.52
2023-03-28T11:01:49.966Z,0.85
2023-03-28T11:04:58.583Z,0.60
2023-03-28T11:08:26.733Z,0.52
2023-03-28T11:12:06.387Z,0.43
2023-03-28T11:15:31.967Z,0.60
2023-03-28T11:18:56.844Z,0.47
2023-03-28T11:22:21.735Z,1.10
2023-03-28T11:25:46.902Z,0.73
2023-03-28T11:29:59.961Z,0.30
2023-03-28T11:33:31.120Z,0.30
2023-03-28T11:36:46.244Z,0.55
2023-03-28T11:40:04.054Z,0.28
2023-03-28T11:43:33.996Z,0.40
2023-03-28T11:46:56.039Z,0.38
2023-03-28T11:50:05.363Z,0.30
2023-03-28T11:53:43.350Z,0.50
2023-03-28T11:57:23.808Z,0.50
2023-03-28T12:01:06.601Z,0.30
2023-03-28T12:04:22.061Z,0.43
2023-03-28T12:08:07.572Z,0.20
2023-03-28T12:11:18.580Z,0.30
2023-03-28T12:14:43.237Z,0.40
2023-03-28T12:18:23.416Z,0.40
2023-03-28T12:21:35.586Z,0.60
2023-03-28T12:24:57.074Z,1.52
2023-03-28T12:28:28.913Z,0.40
2023-03-28T12:31:48.851Z,0.40
2023-03-28T12:35:05.746Z,0.50
2023-03-28T12:38:47.857Z,0.43
2023-03-28T12:42:13.513Z,1.40
2023-03-28T12:45:41.637Z,0.50
2023-03-28T12:49:08.686Z,0.95
2023-03-28T12:52:44.329Z,0.50
2023-03-28T12:55:57.742Z,0.50
2023-03-28T12:59:36.473Z,0.55
2023-03-28T13:02:44.697Z,0.50
2023-03-28T13:06:09.823Z,0.32
2023-03-28T13:09:31.573Z,0.55
2023-03-28T13:12:49.088Z,0.38
2023-03-28T13:16:00.557Z,0.70
2023-03-28T13:19:11.756Z,0.60
2023-03-28T13:23:01.848Z,0.60
2023-03-28T13:26:06.530Z,0.73
2023-03-28T13:29:09.481Z,0.52
2023-03-28T13:32:23.704Z,1.00
2023-03-28T13:35:49.368Z,0.60
2023-03-28T13:39:33.371Z,0.50
2023-03-28T13:42:36.281Z,0.70
2023-03-28T13:45:39.285Z,0.70
2023-03-28T13:48:54.695Z,0.55
2023-03-28T13:52:19.673Z,0.90
2023-03-28T13:55:24.525Z,0.98
2023-03-28T13:58:27.430Z,1.35
2023-03-28T14:01:45.281Z,0.80
2023-03-28T14:04:57.590Z,0.43
2023-03-28T14:08:21.687Z,0.50
2023-03-28T14:11:34.799Z,0.60
2023-03-28T14:14:42.568Z,1.00
2023-03-28T14:17:45.290Z,0.80
2023-03-28T14:20:48.100Z,1.50
2023-03-28T14:23:59.121Z,0.70
2023-03-28T14:27:16.088Z,0.70
2023-03-28T14:30:29.923Z,0.55
2023-03-28T14:33:37.822Z,0.50
2023-03-28T14:37:02.447Z,0.68
2023-03-28T14:40:31.791Z,0.68
2023-03-28T14:43:34.824Z,0.68
2023-03-28T14:46:37.818Z,0.98
2023-03-28T14:49:41.178Z,0.50
2023-03-28T14:52:44.995Z,0.60
2023-03-28T14:55:52.161Z,0.60
2023-03-28T14:59:00.061Z,0.85
2023-03-28T15:02:04.978Z,0.40
2023-03-28T15:05:15.040Z,0.52
2023-03-28T15:08:34.829Z,0.60
2023-03-28T15:11:39.407Z,0.40
2023-03-28T15:14:44.315Z,0.43
2023-03-28T15:17:47.642Z,0.55
2023-03-28T15:20:52.563Z,0.95
2023-03-28T15:24:00.900Z,0.82
2023-03-28T15:27:06.027Z,0.50
2023-03-28T15:30:17.149Z,1.73
2023-03-28T15:33:22.624Z,0.70
2023-03-28T15:36:30.827Z,1.23
2023-03-28T15:39:35.138Z,1.02
2023-03-28T15:42:38.201Z,1.00
2023-03-28T15:45:44.970Z,1.25
2023-03-28T15:48:48.347Z,1.27
2023-03-28T15:51:58.450Z,0.60
2023-03-28T15:55:02.713Z,0.82
2023-03-28T15:58:06.394Z,0.63
2023-03-28T16:01:27.468Z,0.50
2023-03-28T16:04:30.362Z,0.60
2023-03-28T16:07:37.474Z,0.63
2023-03-28T16:10:40.377Z,0.80
2023-03-28T16:14:03.675Z,0.60
2023-03-28T16:17:33.659Z,0.80
2023-03-28T16:20:59.398Z,0.50
2023-03-28T16:24:02.395Z,0.50
2023-03-28T16:27:05.403Z,0.85
2023-03-28T16:30:18.317Z,0.50
2023-03-28T16:33:22.116Z,0.73
2023-03-28T16:36:27.772Z,0.60
2023-03-28T16:39:30.669Z,0.50
2023-03-28T16:42:33.626Z,0.60
2023-03-28T16:45:36.644Z,0.65
2023-03-28T16:48:39.828Z,0.90
2023-03-28T16:51:42.937Z,0.80
2023-03-28T16:54:48.884Z,0.70
2023-03-28T16:57:52.192Z,0.65
2023-03-28T17:01:08.857Z,0.60
2023-03-28T17:04:12.161Z,0.70
2023-03-28T17:07:15.285Z,0.70
2023-03-28T17:10:18.210Z,0.70
2023-03-28T17:13:21.683Z,0.60
2023-03-28T17:16:24.694Z,0.80
2023-03-28T17:19:29.400Z,1.77
2023-03-28T17:22:32.202Z,2.30
2023-03-28T17:25:41.712Z,1.13
2023-03-28T17:28:52.591Z,2.97
2023-03-28T17:31:55.820Z,2.38
2023-03-28T17:34:58.936Z,2.38
2023-03-28T17:38:01.754Z,1.20
2023-03-28T17:41:04.759Z,2.03
2023-03-28T17:44:09.309Z,2.55
2023-03-28T17:47:12.850Z,1.48
2023-03-28T17:50:16.105Z,1.98
2023-03-28T17:53:19.112Z,1.45
2023-03-28T17:56:22.558Z,2.45
2023-03-28T17:59:25.494Z,0.95
2023-03-28T18:02:29.025Z,1.98
2023-03-28T18:05:50.295Z,0.68
2023-03-28T18:08:55.894Z,1.02
2023-03-28T18:11:58.728Z,0.85
2023-03-28T18:15:01.559Z,1.20
2023-03-28T18:18:05.471Z,0.90
2023-03-28T18:21:09.107Z,1.10
2023-03-28T18:24:12.860Z,0.95
2023-03-28T18:27:15.920Z,0.80
2023-03-28T18:30:21.664Z,0.60
2023-03-28T18:33:24.685Z,0.90
2023-03-28T18:36:27.952Z,0.90
2023-03-28T18:39:33.315Z,4.65
2023-03-28T18:42:36.941Z,3.17
2023-03-28T18:45:40.974Z,3.85
2023-03-28T18:48:46.024Z,2.43
2023-03-28T18:51:49.337Z,2.95
2023-03-28T18:54:54.959Z,3.53
2023-03-28T18:57:58.448Z,5.50
2023-03-28T19:01:03.759Z,1.10
2023-03-28T19:04:06.993Z,1.70
2023-03-28T19:07:10.426Z,1.40
2023-03-28T19:10:14.619Z,6.72
2023-03-28T19:13:17.510Z,1.13
2023-03-28T19:16:20.406Z,1.25
2023-03-28T19:19:25.872Z,1.58
2023-03-28T19:22:28.620Z,2.15
2023-03-28T19:25:32.196Z,1.90
2023-03-28T19:28:35.623Z,1.77
2023-03-28T19:31:38.558Z,1.85
2023-03-28T19:34:41.769Z,4.95
2023-03-28T19:37:44.523Z,10.00
2023-03-28T19:40:47.681Z,8.13
2023-03-28T19:43:51.681Z,13.43
2023-03-28T19:46:54.525Z,7.40
2023-03-28T19:49:57.562Z,6.95
2023-03-28T19:53:00.563Z,3.95
2023-03-28T19:56:03.812Z,2.38
2023-03-28T19:59:06.838Z,1.88
2023-03-28T20:02:11.206Z,1.55
2023-03-28T20:05:14.063Z,1.73
2023-03-28T20:08:19.260Z,1.60
2023-03-28T20:11:22.443Z,2.15
2023-03-28T20:14:25.268Z,8.60
2023-03-28T20:17:28.170Z,5.18
2023-03-28T20:20:31.670Z,4.65
2023-03-28T20:23:34.557Z,2.75
2023-03-28T20:26:37.296Z,4.85
2023-03-28T20:29:40.034Z,4.10
2023-03-28T20:32:44.949Z,4.38
2023-03-28T20:35:58.912Z,1.33
2023-03-28T20:39:02.851Z,4.90
2023-03-28T20:42:05.889Z,6.05
2023-03-28T20:45:14.289Z,2.05
2023-03-28T20:48:17.181Z,2.75
2023-03-28T20:51:23.309Z,5.50
2023-03-28T20:54:28.121Z,5.80
2023-03-28T20:57:36.184Z,1.90
2023-03-28T21:00:40.222Z,6.40
2023-03-28T21:03:50.078Z,1.48
2023-03-28T21:06:55.538Z,1.52
2023-03-28T21:10:01.506Z,1.10
2023-03-28T21:13:04.332Z,4.85
2023-03-28T21:16:07.798Z,2.38
2023-03-28T21:19:10.622Z,3.00
2023-03-28T21:22:13.303Z,1.77
2023-03-28T21:25:18.943Z,1.48
2023-03-28T21:28:21.840Z,1.60
2023-03-28T21:31:27.057Z,1.75
2023-03-28T21:34:35.923Z,1.55
2023-03-28T21:37:38.835Z,1.65
2023-03-28T21:40:41.506Z,1.40
2023-03-28T21:43:44.338Z,0.93
2023-03-28T21:46:47.185Z,1.58
2023-03-28T21:49:49.932Z,1.38
2023-03-28T21:52:52.824Z,1.02
2023-03-28T21:55:56.531Z,1.20
2023-03-28T21:58:59.211Z,0.90
2023-03-28T22:02:02.107Z,1.67
2023-03-28T22:05:07.238Z,1.55
2023-03-28T22:08:15.794Z,1.08
2023-03-28T22:11:21.725Z,1.33
2023-03-28T22:14:24.401Z,0.95
2023-03-28T22:17:27.395Z,2.17
2023-03-28T22:20:30.185Z,1.40
2023-03-28T22:23:32.819Z,1.13
2023-03-28T22:26:36.280Z,2.47
2023-03-28T22:29:38.903Z,1.25
2023-03-28T22:32:41.954Z,1.65
2023-03-28T22:35:47.303Z,1.40
2023-03-28T22:38:49.981Z,1.30
2023-03-28T22:41:54.294Z,0.90
2023-03-28T22:44:56.955Z,1.35
2023-03-28T22:48:00.713Z,1.67
2023-03-28T22:51:03.673Z,1.30
2023-03-28T22:54:06.591Z,1.45
2023-03-28T22:57:09.555Z,1.30
2023-03-28T23:00:13.601Z,2.00
2023-03-28T23:03:17.471Z,1.73
2023-03-28T23:06:20.597Z,1.40
2023-03-28T23:09:27.722Z,1.70
2023-03-28T23:12:30.879Z,1.60
2023-03-28T23:15:33.495Z,2.00
2023-03-28T23:18:36.712Z,1.30
2023-03-28T23:21:39.444Z,1.73
2023-03-28T23:24:42.180Z,1.20
2023-03-28T23:27:45.278Z,1.75
2023-03-28T23:30:47.950Z,1.52
2023-03-28T23:33:50.855Z,1.52
2023-03-28T23:36:57.382Z,1.33
2023-03-28T23:40:00.170Z,1.77
2023-03-28T23:43:02.744Z,2.50
2023-03-28T23:46:05.845Z,1.95
2023-03-28T23:49:10.691Z,3.17
2023-03-28T23:52:13.869Z,3.35
2023-03-28T23:55:16.858Z,2.65
2023-03-28T23:58:19.940Z,2.70
